Porters Falls, West Virginia
Current Conditions -  °F | °C
As of 10:53 AM on Friday 19 Dec 2014 (Local Time) from KCKB Reporting Station
Overcast Overcast  
Wind Chill: 28°   Ceiling: 2000
Heat Index: 28°   Visibility: 8mi
Dew Point: 22°   Wind: 3mph
Humidity: 78%   Direction: 260°W
Pressure: 30.24"   Gusts: NA
Location:  39.58°N, 80.78°W
Report Text: KCKB 191553Z 26003KT 8SM OVC020 M02/M06 A3024 RMK AO2 SLP250 T10221056
Loading
Personal Weather Stations






























Interactive Weather Map New forecast layout! Learn more

10-Day Weather Forecast

Advertisements
Track Severe Weather on mobile